createdAt,value
2019-05-26T00:01:30.783Z,14.30
2019-05-26T00:04:02.392Z,14.20
2019-05-26T00:06:32.948Z,14.30
2019-05-26T00:09:03.634Z,14.30
2019-05-26T00:11:34.053Z,14.40
2019-05-26T00:14:05.117Z,14.30
2019-05-26T00:16:36.053Z,14.30
2019-05-26T00:19:06.677Z,14.30
2019-05-26T00:21:37.253Z,14.30
2019-05-26T00:24:07.863Z,14.30
2019-05-26T00:26:40.739Z,14.20
2019-05-26T00:29:14.033Z,14.20
2019-05-26T00:31:44.221Z,14.10
2019-05-26T00:34:15.161Z,14.10
2019-05-26T00:36:46.431Z,14.00
2019-05-26T00:39:16.651Z,14.00
2019-05-26T00:41:47.175Z,14.00
2019-05-26T00:44:17.673Z,13.90
2019-05-26T00:46:48.080Z,13.90
2019-05-26T00:49:18.353Z,13.90
2019-05-26T00:51:49.105Z,13.80
2019-05-26T00:54:19.515Z,13.70
2019-05-26T00:56:49.831Z,13.70
2019-05-26T00:59:21.038Z,13.60
2019-05-26T01:01:52.524Z,13.60
2019-05-26T01:04:26.968Z,13.50
2019-05-26T01:07:01.609Z,13.50
2019-05-26T01:09:33.137Z,13.40
2019-05-26T01:12:03.439Z,13.30
2019-05-26T01:14:34.031Z,13.40
2019-05-26T01:17:04.202Z,13.40
2019-05-26T01:19:34.581Z,13.30
2019-05-26T01:22:05.106Z,13.30
2019-05-26T01:24:35.876Z,13.30
2019-05-26T01:27:06.363Z,13.20
2019-05-26T01:29:36.995Z,13.10
2019-05-26T01:32:08.460Z,13.00
2019-05-26T01:34:39.487Z,12.90
2019-05-26T01:37:15.349Z,12.80
2019-05-26T01:39:45.422Z,12.70
2019-05-26T01:42:18.801Z,12.70
2019-05-26T01:44:48.918Z,12.60
2019-05-26T01:47:19.510Z,12.60
2019-05-26T01:49:50.093Z,12.50
2019-05-26T01:52:20.454Z,12.40
2019-05-26T01:54:51.034Z,12.30
2019-05-26T01:57:21.623Z,12.10
2019-05-26T01:59:51.907Z,12.00
2019-05-26T02:02:22.691Z,11.90
2019-05-26T02:04:53.370Z,11.80
2019-05-26T02:07:23.745Z,11.60
2019-05-26T02:09:57.283Z,11.60
2019-05-26T02:12:28.910Z,11.50
2019-05-26T02:14:59.833Z,11.40
2019-05-26T02:17:30.956Z,11.30
2019-05-26T02:20:01.705Z,11.20
2019-05-26T02:22:32.524Z,11.20
2019-05-26T02:25:03.123Z,11.20
2019-05-26T02:27:33.764Z,11.20
2019-05-26T02:30:04.626Z,11.20
2019-05-26T02:32:35.015Z,11.10
2019-05-26T02:35:06.120Z,11.10
2019-05-26T02:37:36.527Z,11.00
2019-05-26T02:40:08.174Z,11.00
2019-05-26T02:42:40.082Z,10.90
2019-05-26T02:45:14.245Z,10.80
2019-05-26T02:47:46.076Z,10.80
2019-05-26T02:50:17.292Z,10.80
2019-05-26T02:52:48.338Z,10.70
2019-05-26T02:55:19.181Z,10.70
2019-05-26T02:57:49.555Z,10.60
2019-05-26T03:00:39.171Z,10.60
2019-05-26T03:03:11.221Z,10.50
2019-05-26T03:05:44.728Z,10.60
2019-05-26T03:08:16.383Z,10.60
2019-05-26T03:10:48.817Z,10.50
2019-05-26T03:13:19.457Z,10.60
2019-05-26T03:15:50.357Z,10.50
2019-05-26T03:18:21.215Z,10.50
2019-05-26T03:20:52.345Z,10.60
2019-05-26T03:23:22.811Z,10.50
2019-05-26T03:25:58.180Z,10.50
2019-05-26T03:28:28.477Z,10.50
2019-05-26T03:30:58.879Z,10.50
2019-05-26T03:33:29.611Z,10.40
2019-05-26T03:36:00.181Z,10.50
2019-05-26T03:38:30.569Z,10.40
2019-05-26T03:41:00.934Z,10.40
2019-05-26T03:43:31.128Z,10.50
2019-05-26T03:46:19.697Z,10.50
2019-05-26T03:48:51.165Z,10.50
2019-05-26T03:51:21.900Z,10.50
2019-05-26T03:53:52.298Z,10.60
2019-05-26T03:56:22.628Z,11.30
2019-05-26T03:58:53.161Z,12.10
2019-05-26T04:01:23.807Z,12.80
2019-05-26T04:03:54.440Z,13.50
2019-05-26T04:06:25.233Z,14.10
2019-05-26T04:08:55.377Z,14.80
2019-05-26T04:11:25.930Z,15.40
2019-05-26T04:13:55.992Z,15.80
2019-05-26T04:16:26.115Z,16.40
2019-05-26T04:18:56.730Z,16.80
2019-05-26T04:21:27.522Z,17.40
2019-05-26T04:23:57.838Z,17.90
2019-05-26T04:26:28.177Z,18.60
2019-05-26T04:28:58.585Z,19.20
2019-05-26T04:31:29.152Z,19.70
2019-05-26T04:33:59.565Z,20.00
2019-05-26T04:36:29.857Z,20.30
2019-05-26T04:39:00.280Z,20.60
2019-05-26T04:41:31.018Z,20.60
2019-05-26T04:44:01.592Z,20.50
2019-05-26T04:46:32.694Z,20.50
2019-05-26T04:49:03.356Z,20.20
2019-05-26T04:51:34.091Z,19.50
2019-05-26T04:54:06.125Z,18.70
2019-05-26T04:56:37.469Z,18.10
2019-05-26T04:59:08.041Z,17.60
2019-05-26T05:01:38.705Z,17.10
2019-05-26T05:04:09.030Z,16.70
2019-05-26T05:06:39.811Z,16.50
2019-05-26T05:09:10.147Z,16.40
2019-05-26T05:11:40.875Z,16.20
2019-05-26T05:14:11.302Z,16.10
2019-05-26T05:16:41.474Z,16.10
2019-05-26T05:19:15.474Z,16.00
2019-05-26T05:21:45.858Z,16.00
2019-05-26T05:24:16.386Z,16.10
2019-05-26T05:26:46.543Z,16.10
2019-05-26T05:29:16.831Z,16.10
2019-05-26T05:31:46.910Z,16.10
2019-05-26T05:34:17.165Z,15.90
2019-05-26T05:36:48.083Z,15.80
2019-05-26T05:39:18.647Z,15.80
2019-05-26T05:41:50.748Z,16.00
2019-05-26T05:44:21.193Z,16.10
2019-05-26T05:46:51.343Z,16.10
2019-05-26T05:49:22.017Z,16.10
2019-05-26T05:51:53.365Z,16.10
2019-05-26T05:54:24.050Z,16.20
2019-05-26T05:56:55.778Z,16.10
2019-05-26T05:59:26.063Z,15.90
2019-05-26T06:01:56.687Z,15.80
2019-05-26T06:04:26.910Z,15.80
2019-05-26T06:06:57.468Z,15.80
2019-05-26T06:09:28.619Z,15.70
2019-05-26T06:11:59.061Z,15.70
2019-05-26T06:14:29.493Z,15.70
2019-05-26T06:17:00.761Z,15.70
2019-05-26T06:19:32.608Z,15.70
2019-05-26T06:22:03.649Z,15.80
2019-05-26T06:24:34.691Z,15.80
2019-05-26T06:27:05.470Z,15.80
2019-05-26T06:29:36.356Z,15.80
2019-05-26T06:32:09.985Z,15.90
2019-05-26T06:34:40.779Z,15.90
2019-05-26T06:37:11.471Z,16.00
2019-05-26T06:39:42.143Z,16.10
2019-05-26T06:42:13.270Z,16.20
2019-05-26T06:44:53.610Z,16.30
2019-05-26T06:47:16.292Z,16.30
2019-05-26T06:49:52.818Z,16.30
2019-05-26T06:52:23.612Z,16.30
2019-05-26T06:54:54.244Z,16.40
2019-05-26T06:57:25.101Z,16.50
2019-05-26T06:59:55.814Z,16.40
2019-05-26T07:02:26.624Z,16.40
2019-05-26T07:04:57.840Z,16.30
2019-05-26T07:07:28.812Z,16.20
2019-05-26T07:09:59.551Z,16.20
2019-05-26T07:12:30.492Z,16.30
2019-05-26T07:15:03.356Z,16.40
2019-05-26T07:17:34.508Z,16.60
2019-05-26T07:20:06.837Z,16.70
2019-05-26T07:22:38.274Z,16.80
2019-05-26T07:25:09.757Z,16.90
2019-05-26T07:27:40.151Z,17.00
2019-05-26T07:30:13.536Z,17.10
2019-05-26T07:32:44.638Z,17.10
2019-05-26T07:35:15.402Z,17.10
2019-05-26T07:37:46.836Z,17.20
2019-05-26T07:40:18.369Z,17.30
2019-05-26T07:42:48.634Z,17.20
2019-05-26T07:45:18.999Z,17.30
2019-05-26T07:47:49.552Z,17.50
2019-05-26T07:50:19.870Z,17.60
2019-05-26T07:52:50.008Z,17.70
2019-05-26T07:55:20.640Z,17.70
2019-05-26T07:57:51.530Z,17.50
2019-05-26T08:00:22.242Z,17.40
2019-05-26T08:02:52.655Z,17.40
2019-05-26T08:05:24.338Z,17.60
2019-05-26T08:08:09.566Z,17.70
2019-05-26T08:10:26.867Z,17.70
2019-05-26T08:12:57.277Z,17.80
2019-05-26T08:15:27.451Z,18.00
2019-05-26T08:17:57.824Z,18.10
2019-05-26T08:20:28.390Z,18.20
2019-05-26T08:22:58.443Z,18.20
2019-05-26T08:25:29.068Z,18.10
2019-05-26T08:28:00.103Z,18.30
2019-05-26T08:30:30.362Z,18.50
2019-05-26T08:33:00.554Z,18.60
2019-05-26T08:35:44.141Z,18.60
2019-05-26T08:38:21.771Z,18.80
2019-05-26T08:40:52.569Z,19.00
2019-05-26T08:43:23.246Z,19.00
2019-05-26T08:45:54.517Z,19.00
2019-05-26T08:48:30.044Z,18.90
2019-05-26T08:51:01.345Z,18.90
2019-05-26T08:53:31.995Z,19.00
2019-05-26T08:56:04.722Z,19.10
2019-05-26T08:58:34.942Z,19.20
2019-05-26T09:01:05.497Z,19.50
2019-05-26T09:03:35.873Z,19.60
2019-05-26T09:06:06.218Z,19.30
2019-05-26T09:08:36.517Z,19.50
2019-05-26T09:11:08.303Z,19.50
2019-05-26T09:13:38.821Z,19.50
2019-05-26T09:16:09.489Z,19.40
2019-05-26T09:18:39.916Z,19.60
2019-05-26T09:21:10.561Z,19.90
2019-05-26T09:23:40.950Z,20.30
2019-05-26T09:26:15.419Z,20.70
2019-05-26T09:28:46.446Z,21.10
2019-05-26T09:31:16.953Z,21.20
2019-05-26T09:33:47.700Z,21.30
2019-05-26T09:36:20.185Z,21.60
2019-05-26T09:38:50.817Z,21.90
2019-05-26T09:41:21.663Z,22.30
2019-05-26T09:43:55.629Z,22.20
2019-05-26T09:46:27.527Z,21.80
2019-05-26T09:49:00.820Z,21.80
2019-05-26T09:51:30.091Z,21.80
2019-05-26T09:54:02.216Z,21.70
2019-05-26T09:56:34.116Z,21.40
2019-05-26T09:59:04.649Z,21.60
2019-05-26T10:01:35.485Z,21.70
2019-05-26T10:04:06.118Z,21.70
2019-05-26T10:06:38.373Z,21.70
2019-05-26T10:09:09.269Z,21.30
2019-05-26T10:11:39.949Z,21.00
2019-05-26T10:14:10.658Z,21.40
2019-05-26T10:16:41.317Z,21.30
2019-05-26T10:19:12.361Z,21.60
2019-05-26T10:21:42.982Z,21.90
2019-05-26T10:24:14.178Z,21.90
2019-05-26T10:26:44.763Z,21.80
2019-05-26T10:29:15.493Z,21.90
2019-05-26T10:31:45.793Z,22.10
2019-05-26T10:34:15.923Z,22.50
2019-05-26T10:36:46.225Z,22.80
2019-05-26T10:39:17.305Z,23.00
2019-05-26T10:41:48.029Z,23.20
2019-05-26T10:44:18.374Z,22.80
2019-05-26T10:46:49.525Z,22.30
2019-05-26T10:49:20.082Z,22.20
2019-05-26T10:51:51.197Z,22.50
2019-05-26T10:54:21.485Z,22.00
2019-05-26T10:56:52.755Z,21.40
2019-05-26T10:59:23.187Z,21.60
2019-05-26T11:01:53.677Z,21.80
2019-05-26T11:04:24.953Z,21.60
2019-05-26T11:06:55.267Z,21.50
2019-05-26T11:09:27.198Z,21.60
2019-05-26T11:11:58.096Z,21.70
2019-05-26T11:14:28.776Z,21.90
2019-05-26T11:17:05.726Z,21.40
2019-05-26T11:19:36.861Z,21.50
2019-05-26T11:22:07.565Z,21.60
2019-05-26T11:24:37.935Z,21.80
2019-05-26T11:27:12.140Z,22.10
2019-05-26T11:29:40.958Z,21.90
2019-05-26T11:32:11.888Z,21.60
2019-05-26T11:34:42.886Z,21.60
2019-05-26T11:37:15.054Z,22.00
2019-05-26T11:39:45.836Z,22.30
2019-05-26T11:42:16.577Z,22.60
2019-05-26T11:44:47.089Z,23.10
2019-05-26T11:47:18.174Z,23.50
2019-05-26T11:49:48.688Z,23.50
2019-05-26T11:52:22.668Z,23.40
2019-05-26T11:54:54.966Z,23.60
2019-05-26T11:57:25.594Z,23.20
2019-05-26T11:59:57.795Z,22.50
2019-05-26T12:02:32.180Z,22.60
2019-05-26T12:05:04.366Z,23.30
2019-05-26T12:07:43.178Z,23.50
2019-05-26T12:10:14.362Z,23.70
2019-05-26T12:12:46.579Z,24.00
2019-05-26T12:15:25.478Z,24.00
2019-05-26T12:17:56.553Z,23.80
2019-05-26T12:20:37.914Z,23.60
2019-05-26T12:23:14.158Z,23.90
2019-05-26T12:25:52.185Z,24.10
2019-05-26T12:28:37.051Z,24.00
2019-05-26T12:31:27.424Z,24.10
2019-05-26T12:34:06.564Z,24.30
2019-05-26T12:36:48.333Z,24.50
2019-05-26T12:39:25.081Z,24.50
2019-05-26T12:41:58.374Z,24.00
2019-05-26T12:44:49.143Z,24.20
2019-05-26T12:47:16.765Z,24.50
2019-05-26T12:49:48.410Z,24.50
2019-05-26T12:52:23.254Z,24.40
2019-05-26T12:54:54.096Z,24.60
2019-05-26T12:57:32.054Z,24.80
2019-05-26T13:00:23.704Z,25.00
2019-05-26T13:02:56.683Z,25.10
2019-05-26T13:05:35.208Z,25.10
2019-05-26T13:08:06.462Z,25.00
2019-05-26T13:10:59.310Z,24.90
2019-05-26T13:13:40.168Z,25.00
2019-05-26T13:16:12.308Z,25.00
2019-05-26T13:18:42.879Z,24.30
2019-05-26T13:21:24.113Z,24.40
2019-05-26T13:24:01.394Z,24.40
2019-05-26T13:26:54.231Z,24.40
2019-05-26T13:29:29.485Z,24.20
2019-05-26T13:32:03.633Z,24.20
2019-05-26T13:34:43.183Z,24.50
2019-05-26T13:37:19.386Z,24.70
2019-05-26T13:39:55.411Z,24.70
2019-05-26T13:42:33.515Z,24.30
2019-05-26T13:45:21.698Z,24.10
2019-05-26T13:47:47.916Z,23.90
2019-05-26T13:50:20.973Z,23.90
2019-05-26T13:52:53.205Z,23.70
2019-05-26T13:55:23.631Z,23.90
2019-05-26T13:57:53.831Z,24.20
2019-05-26T14:00:25.404Z,24.60
2019-05-26T14:02:56.102Z,24.80
2019-05-26T14:05:26.603Z,24.80
2019-05-26T14:07:57.053Z,24.90
2019-05-26T14:10:32.431Z,24.90
2019-05-26T14:13:07.525Z,24.50
2019-05-26T14:15:39.520Z,24.30
2019-05-26T14:18:10.905Z,24.20
2019-05-26T14:20:45.952Z,24.40
2019-05-26T14:23:16.181Z,24.50
2019-05-26T14:25:46.630Z,24.60
2019-05-26T14:28:17.081Z,24.30
2019-05-26T14:30:48.276Z,24.60
2019-05-26T14:33:19.417Z,24.80
2019-05-26T14:35:50.411Z,24.00
2019-05-26T14:38:21.177Z,24.10
2019-05-26T14:40:51.634Z,24.20
2019-05-26T14:43:22.051Z,24.20
2019-05-26T14:45:53.884Z,24.50
2019-05-26T14:48:25.244Z,24.20
2019-05-26T14:50:55.611Z,24.30
2019-05-26T14:53:27.324Z,24.20
2019-05-26T14:55:57.891Z,24.00
2019-05-26T14:58:28.103Z,23.90
2019-05-26T15:00:58.648Z,23.80
2019-05-26T15:03:29.007Z,23.90
2019-05-26T15:06:06.023Z,24.20
2019-05-26T15:08:31.703Z,24.40
2019-05-26T15:11:02.447Z,24.10
2019-05-26T15:13:43.327Z,24.20
2019-05-26T15:16:17.806Z,24.00
2019-05-26T15:18:47.949Z,23.80
2019-05-26T15:21:18.325Z,23.70
2019-05-26T15:23:49.666Z,23.70
2019-05-26T15:26:20.772Z,23.50
2019-05-26T15:28:50.952Z,23.50
2019-05-26T15:31:21.536Z,23.50
2019-05-26T15:33:58.703Z,23.70
2019-05-26T15:36:29.673Z,23.90
2019-05-26T15:39:00.348Z,24.10
2019-05-26T15:41:30.766Z,24.10
2019-05-26T15:44:01.412Z,24.10
2019-05-26T15:46:32.442Z,23.90
2019-05-26T15:49:02.893Z,23.70
2019-05-26T15:51:33.448Z,23.00
2019-05-26T15:54:04.174Z,22.80
2019-05-26T15:56:34.941Z,22.80
2019-05-26T15:59:05.825Z,22.90
2019-05-26T16:01:36.044Z,23.00
2019-05-26T16:04:06.561Z,22.90
2019-05-26T16:06:38.630Z,23.00
2019-05-26T16:09:09.025Z,23.00
2019-05-26T16:11:43.115Z,23.30
2019-05-26T16:14:15.244Z,23.70
2019-05-26T16:16:45.552Z,24.00
2019-05-26T16:19:16.334Z,23.90
2019-05-26T16:21:46.759Z,23.60
2019-05-26T16:24:17.898Z,23.10
2019-05-26T16:26:49.686Z,22.80
2019-05-26T16:29:19.975Z,22.70
2019-05-26T16:31:50.585Z,22.60
2019-05-26T16:34:20.975Z,22.60
2019-05-26T16:36:51.638Z,22.90
2019-05-26T16:39:36.139Z,23.30
2019-05-26T16:41:54.677Z,23.70
2019-05-26T16:44:25.751Z,24.10
2019-05-26T16:46:57.097Z,24.30
2019-05-26T16:49:27.443Z,24.60
2019-05-26T16:51:58.747Z,24.70
2019-05-26T16:54:29.596Z,24.60
2019-05-26T16:57:00.541Z,24.20
2019-05-26T16:59:31.123Z,23.70
2019-05-26T17:02:01.683Z,23.40
2019-05-26T17:04:32.372Z,23.10
2019-05-26T17:07:03.185Z,22.80
2019-05-26T17:09:34.065Z,22.50
2019-05-26T17:12:04.743Z,22.30
2019-05-26T17:14:35.456Z,22.30
2019-05-26T17:17:14.582Z,22.50
2019-05-26T17:19:38.295Z,22.50
2019-05-26T17:22:08.959Z,22.60
2019-05-26T17:24:39.428Z,22.60
2019-05-26T17:27:09.770Z,22.70
2019-05-26T17:29:40.344Z,22.80
2019-05-26T17:32:11.432Z,23.00
2019-05-26T17:34:42.430Z,23.20
2019-05-26T17:37:14.797Z,23.20
2019-05-26T17:39:46.228Z,23.00
2019-05-26T17:42:17.570Z,22.60
2019-05-26T17:44:51.281Z,22.30
2019-05-26T17:47:30.301Z,22.00
2019-05-26T17:49:54.479Z,21.90
2019-05-26T17:52:30.614Z,21.80
2019-05-26T17:55:05.645Z,21.60
2019-05-26T17:57:37.544Z,21.50
2019-05-26T18:02:46.326Z,21.40
2019-05-26T18:05:20.042Z,21.40
2019-05-26T18:07:51.118Z,21.30
2019-05-26T18:10:23.704Z,21.40
2019-05-26T18:12:54.504Z,21.30
2019-05-26T18:15:25.966Z,21.10
2019-05-26T18:17:56.967Z,20.90
2019-05-26T18:20:28.942Z,20.70
2019-05-26T18:22:59.834Z,20.60
2019-05-26T18:25:32.797Z,20.50
2019-05-26T18:28:03.365Z,20.40
2019-05-26T18:30:36.883Z,20.40
2019-05-26T18:33:07.588Z,20.20
2019-05-26T18:35:38.887Z,20.10
2019-05-26T18:38:09.380Z,20.00
2019-05-26T18:40:40.421Z,20.00
2019-05-26T18:43:10.817Z,19.90
2019-05-26T18:45:41.502Z,19.80
2019-05-26T18:48:14.980Z,19.70
2019-05-26T18:50:45.351Z,19.60
2019-05-26T18:53:15.669Z,19.50
2019-05-26T18:55:46.400Z,19.40
2019-05-26T18:58:16.890Z,19.30
2019-05-26T19:00:47.443Z,19.20
2019-05-26T19:03:18.532Z,19.10
2019-05-26T19:05:48.808Z,19.00
2019-05-26T19:08:19.083Z,18.90
2019-05-26T19:10:51.805Z,18.90
2019-05-26T19:13:23.609Z,18.80
2019-05-26T19:15:57.038Z,18.70
2019-05-26T19:18:39.129Z,18.60
2019-05-26T19:21:13.171Z,18.50
2019-05-26T19:23:44.080Z,18.40
2019-05-26T19:26:15.893Z,18.40
2019-05-26T19:28:50.513Z,18.20
2019-05-26T19:31:22.413Z,18.10
2019-05-26T19:33:57.209Z,18.00
2019-05-26T19:36:32.655Z,17.80
2019-05-26T19:39:03.485Z,18.00
2019-05-26T19:41:39.269Z,18.10
2019-05-26T19:44:08.286Z,18.20
2019-05-26T19:46:43.014Z,18.20
2019-05-26T19:49:15.085Z,18.10
2019-05-26T19:51:46.676Z,17.90
2019-05-26T19:54:18.473Z,17.80
2019-05-26T19:56:51.294Z,17.80
2019-05-26T19:59:26.406Z,17.80
2019-05-26T20:01:58.586Z,17.80
2019-05-26T20:04:33.533Z,17.70
2019-05-26T20:07:06.362Z,17.50
2019-05-26T20:09:37.574Z,17.40
2019-05-26T20:12:12.471Z,17.30
2019-05-26T20:14:44.274Z,17.30
2019-05-26T20:17:17.735Z,17.10
2019-05-26T20:19:48.562Z,17.20
2019-05-26T20:22:24.409Z,17.10
2019-05-26T20:24:56.074Z,17.00
2019-05-26T20:27:27.202Z,17.00
2019-05-26T20:30:02.113Z,17.00
2019-05-26T20:32:35.462Z,16.80
2019-05-26T20:35:07.978Z,16.70
2019-05-26T20:37:39.402Z,16.70
2019-05-26T20:40:10.927Z,16.80
2019-05-26T20:42:41.377Z,16.70
2019-05-26T20:45:15.914Z,16.60
2019-05-26T20:47:46.618Z,16.60
2019-05-26T20:50:28.762Z,16.50
2019-05-26T20:52:51.757Z,16.50
2019-05-26T20:55:22.435Z,16.30
2019-05-26T20:57:52.830Z,16.30
2019-05-26T21:00:23.357Z,16.20
2019-05-26T21:02:53.959Z,16.20
2019-05-26T21:05:24.456Z,16.20
2019-05-26T21:07:55.056Z,16.00
2019-05-26T21:10:25.277Z,16.00
2019-05-26T21:12:55.783Z,16.00
2019-05-26T21:15:25.994Z,16.00
2019-05-26T21:17:56.704Z,16.00
2019-05-26T21:20:28.140Z,16.00
2019-05-26T21:22:59.903Z,15.90
2019-05-26T21:25:30.469Z,15.90
2019-05-26T21:28:01.732Z,15.80
2019-05-26T21:30:31.868Z,15.90
2019-05-26T21:33:03.242Z,15.90
2019-05-26T21:35:34.097Z,15.80
2019-05-26T21:38:04.726Z,15.80
2019-05-26T21:40:35.298Z,15.70
2019-05-26T21:43:05.491Z,15.60
2019-05-26T21:45:36.252Z,15.50
2019-05-26T21:48:06.908Z,15.40
2019-05-26T21:50:37.046Z,15.40
2019-05-26T21:53:07.894Z,15.30
2019-05-26T21:55:38.391Z,15.30
2019-05-26T21:58:09.039Z,15.20
2019-05-26T22:00:43.868Z,15.00
2019-05-26T22:03:14.602Z,15.00
2019-05-26T22:05:45.225Z,15.00
2019-05-26T22:08:16.351Z,15.00
2019-05-26T22:10:46.652Z,15.10
2019-05-26T22:13:19.531Z,15.10
2019-05-26T22:15:50.927Z,15.20
2019-05-26T22:18:22.292Z,15.30
2019-05-26T22:20:53.469Z,15.30
2019-05-26T22:23:23.833Z,15.30
2019-05-26T22:25:54.106Z,15.20
2019-05-26T22:28:24.341Z,15.20
2019-05-26T22:30:55.237Z,15.30
2019-05-26T22:33:26.663Z,15.30
2019-05-26T22:35:57.361Z,15.40
2019-05-26T22:38:28.090Z,15.40
2019-05-26T22:40:58.598Z,15.50
2019-05-26T22:43:29.008Z,15.60
2019-05-26T22:46:00.612Z,15.60
2019-05-26T22:48:31.077Z,15.60
2019-05-26T22:51:01.958Z,15.60
2019-05-26T22:53:32.295Z,15.50
2019-05-26T22:56:02.879Z,15.50
2019-05-26T22:58:33.525Z,15.50
2019-05-26T23:01:03.725Z,15.50
2019-05-26T23:03:34.638Z,15.40
2019-05-26T23:06:07.837Z,15.20
2019-05-26T23:08:38.767Z,15.20
2019-05-26T23:11:09.607Z,15.10
2019-05-26T23:13:39.735Z,15.10
2019-05-26T23:16:10.281Z,15.00
2019-05-26T23:18:40.477Z,14.90
2019-05-26T23:21:10.903Z,14.80
2019-05-26T23:23:41.574Z,14.70
2019-05-26T23:26:12.538Z,14.70
2019-05-26T23:28:42.789Z,14.60
2019-05-26T23:31:13.024Z,14.60
2019-05-26T23:33:43.466Z,14.60
2019-05-26T23:38:51.463Z,14.80
2019-05-26T23:41:22.276Z,14.90
2019-05-26T23:43:55.885Z,15.00
2019-05-26T23:46:26.538Z,15.00
2019-05-26T23:48:56.625Z,15.00
2019-05-26T23:51:26.843Z,15.00
2019-05-26T23:53:57.504Z,15.00
2019-05-26T23:56:27.703Z,14.90
2019-05-26T23:58:59.181Z,14.90
